This is the latest recevied weather packets stored in our database for station/object JA0BES-13. If no packets are shown the sender has not sent any weather packets the latest 10 day(s).
| Time | Temp. | Humidity | Pressure | Rain* | Wind** | Luminosity | Snow |
|---|---|---|---|---|---|---|---|
| 1788396494 | 24.44° C | 100% | 1012 hPa | 0 mm | - | - | - |
| 1788395894 | 24.44° C | 100% | 1011.8 hPa | 0 mm | - | - | - |
| 1788395293 | 25.56° C | 100% | 1011.5 hPa | 0 mm | - | - | - |
| 1788394693 | 25.56° C | 100% | 1011.4 hPa | 0 mm | - | - | - |
| 1788394093 | 25.56° C | 100% | 1011.7 hPa | 0 mm | - | - | - |
| 1788393493 | 25.56° C | 100% | 1011.4 hPa | 0 mm | - | - | - |
| 1788392916 | 25.56° C | 100% | 1011.4 hPa | 0 mm | - | - | - |
| 1788392292 | 25.56° C | 100% | 1011.2 hPa | 0 mm | - | - | - |
| 1788391691 | 25.56° C | 100% | 1010.9 hPa | 0 mm | - | - | - |
| 1788383887 | 25° C | 100% | 1010.7 hPa | 0 mm | - | - | - |
| 1788383286 | 25° C | 100% | 1010.5 hPa | 0 mm | - | - | - |
| 1788354467 | 28.89° C | 100% | 1012.3 hPa | 0 mm | - | - | - |
| 1788353867 | 28.89° C | 100% | 1012.6 hPa | 0 mm | - | - | - |
| 1788353266 | 28.89° C | 100% | 1012.8 hPa | 0 mm | - | - | - |
| 1788352666 | 28.89° C | 100% | 1013 hPa | 0 mm | - | - | - |
| 1788352065 | 28.89° C | 100% | 1013.1 hPa | 0 mm | - | - | - |
| 1788351465 | 28.89° C | 99% | 1012.9 hPa | 0 mm | - | - | - |
| 1788350865 | 29.44° C | 98% | 1012.9 hPa | 0 mm | - | - | - |
| 1788350265 | 29.44° C | 98% | 1012.9 hPa | 0 mm | - | - | - |
| 1788349664 | 28.89° C | 95% | 1013 hPa | 0 mm | - | - | - |
| 1788349064 | 29.44° C | 94% | 1013 hPa | 0 mm | - | - | - |
| 1788348463 | 30° C | 95% | 1013.1 hPa | 0 mm | - | - | - |
| 1788347863 | 30° C | 95% | 1013 hPa | 0 mm | - | - | - |
| 1788347262 | 30° C | 95% | 1012.9 hPa | 0 mm | - | - | - |
| 1788346662 | 30° C | 95% | 1012.9 hPa | 0 mm | - | - | - |
* Rain since midnight (hover to see other rain measurements)
** Current wind speed in m/s (hover to see current wind gust speed)